Hlavní strana
METAR-TAF:

METAR-TAF

Letiště :

Letiště Ankara-Esenboğa

Ankara Esenboğa, Turecko

zeměpisná šířka: 40-07N, zeměpisná délka: 032-59E, výška: 953 m

Aktuální stav počasí

Zpráva byla vytvořena před 40 minutami, v 21:50 UTC
Bezvětří
Teplota -2°C
Vlhkost vzduchu 80%
Tlak 1020 hPa
Viditelnost 10 km a více
Žádná oblačnost pod 1500 m, nevyskytují se cumulonimby.

METAR: LTAC 182150Z 00000KT CAVOK M02/M05 Q1020 NOSIG RMK RWY21L 06005KT RWY03L 05002KT RWY21R 08002KT

Čas: 01:30 (22:30 UTC)

Předpověď počasí

Zpráva byla vytvořena před 5 hodinami a 50 minutami, v 16:40 UTC
Předpověď platná od 18 v 18 UTC do 19 v 18 UTC
vítr z různých směrů 2 kt
Viditelnost 10 km a více
Žádná oblačnost pod 1500 m, nevyskytují se cumulonimby.

TAF: LTAC 181640Z 1818/1918 VRB02KT CAVOK

Stav a předpovědi počasí z více než 4 000 letišť (zprávy METAR a TAF).

Červené a žluté tečky na mapě představují dostupné meteorologické stanice.

Když kurzor umístíte na tečku, zobrazí se název stanice.

Pak kliknutím zobrazíte stav a předpověď počasí.

Chcete-li změnit mapu, kliknutím na zelené tlačítko se znaménkem +mapu přiblížíte, kliknutím na zelené tlačítko se znaménkem – mapu oddálíte a kliknutím na zelené šipky přejdete na sousední mapy.


METAR-TAF: